createdAt,value
2019-05-18T00:01:39.104Z,99.90
2019-05-18T00:04:08.915Z,99.90
2019-05-18T00:06:38.453Z,99.90
2019-05-18T00:09:08.591Z,99.90
2019-05-18T00:11:38.111Z,99.90
2019-05-18T00:14:07.736Z,99.90
2019-05-18T00:16:37.370Z,99.90
2019-05-18T00:19:13.075Z,99.90
2019-05-18T00:21:42.648Z,99.90
2019-05-18T00:24:12.198Z,99.90
2019-05-18T00:26:41.962Z,99.90
2019-05-18T00:29:11.689Z,99.90
2019-05-18T00:31:41.359Z,99.90
2019-05-18T00:34:10.919Z,99.90
2019-05-18T00:36:40.684Z,99.90
2019-05-18T00:39:10.398Z,99.90
2019-05-18T00:41:39.998Z,99.90
2019-05-18T00:44:09.820Z,99.90
2019-05-18T00:46:39.456Z,99.90
2019-05-18T00:49:08.997Z,99.90
2019-05-18T00:51:38.840Z,99.90
2019-05-18T00:54:08.573Z,99.90
2019-05-18T00:56:38.248Z,99.90
2019-05-18T00:59:08.025Z,99.90
2019-05-18T01:01:37.547Z,99.90
2019-05-18T01:04:07.292Z,99.90
2019-05-18T01:06:36.864Z,99.90
2019-05-18T01:09:07.674Z,99.90
2019-05-18T01:11:37.444Z,99.90
2019-05-18T01:14:07.155Z,99.90
2019-05-18T01:16:36.693Z,99.90
2019-05-18T01:19:06.482Z,99.90
2019-05-18T01:21:36.189Z,99.90
2019-05-18T01:24:06.038Z,99.90
2019-05-18T01:26:35.846Z,99.90
2019-05-18T01:29:08.075Z,99.90
2019-05-18T01:31:37.797Z,99.90
2019-05-18T01:34:07.556Z,99.90
2019-05-18T01:36:37.419Z,99.90
2019-05-18T01:39:08.100Z,99.90
2019-05-18T01:41:37.863Z,99.90
2019-05-18T01:44:07.652Z,99.90
2019-05-18T01:46:37.436Z,99.90
2019-05-18T01:49:07.108Z,99.90
2019-05-18T01:51:36.899Z,99.90
2019-05-18T01:54:06.778Z,99.90
2019-05-18T01:56:36.565Z,99.90
2019-05-18T01:59:06.112Z,99.90
2019-05-18T02:01:35.860Z,99.90
2019-05-18T02:04:05.476Z,99.90
2019-05-18T02:06:35.165Z,99.90
2019-05-18T02:09:07.295Z,99.90
2019-05-18T02:11:37.464Z,99.90
2019-05-18T02:14:07.176Z,99.90
2019-05-18T02:16:36.743Z,99.90
2019-05-18T02:19:06.358Z,99.90
2019-05-18T02:21:36.121Z,99.90
2019-05-18T02:24:05.668Z,99.90
2019-05-18T02:26:54.231Z,99.90
2019-05-18T02:29:23.783Z,99.90
2019-05-18T02:31:53.521Z,99.90
2019-05-18T02:34:23.004Z,99.90
2019-05-18T02:36:52.566Z,99.90
2019-05-18T02:39:22.202Z,99.90
2019-05-18T02:42:10.754Z,99.90
2019-05-18T02:44:40.466Z,99.90
2019-05-18T02:47:10.010Z,99.90
2019-05-18T02:49:39.523Z,99.90
2019-05-18T02:52:09.195Z,99.90
2019-05-18T02:54:38.736Z,99.90
2019-05-18T02:57:08.467Z,99.90
2019-05-18T02:59:37.958Z,99.90
2019-05-18T03:02:07.652Z,99.90
2019-05-18T03:04:37.455Z,99.90
2019-05-18T03:07:07.009Z,99.90
2019-05-18T03:09:36.600Z,99.90
2019-05-18T03:12:06.261Z,99.90
2019-05-18T03:14:36.095Z,99.90
2019-05-18T03:17:05.822Z,99.90
2019-05-18T03:19:35.420Z,99.90
2019-05-18T03:22:05.321Z,99.90
2019-05-18T03:24:34.936Z,99.90
2019-05-18T03:27:04.858Z,99.90
2019-05-18T03:29:34.367Z,99.90
2019-05-18T03:32:03.936Z,99.90
2019-05-18T03:34:33.500Z,99.90
2019-05-18T03:37:03.044Z,99.90
2019-05-18T03:39:32.635Z,99.90
2019-05-18T03:42:02.256Z,99.90
2019-05-18T03:44:31.759Z,99.90
2019-05-18T03:47:01.413Z,99.90
2019-05-18T03:49:31.055Z,99.90
2019-05-18T03:52:00.713Z,99.90
2019-05-18T03:54:30.555Z,99.90
2019-05-18T03:57:00.403Z,99.90
2019-05-18T03:59:30.232Z,99.90
2019-05-18T04:01:59.849Z,99.90
2019-05-18T04:04:29.485Z,99.90
2019-05-18T04:07:01.802Z,99.90
2019-05-18T04:09:31.431Z,99.90
2019-05-18T04:12:01.203Z,99.90
2019-05-18T04:14:30.799Z,99.90
2019-05-18T04:17:00.451Z,99.90
2019-05-18T04:19:44.755Z,99.90
2019-05-18T04:22:01.530Z,99.90
2019-05-18T04:24:31.090Z,99.90
2019-05-18T04:27:00.623Z,99.90
2019-05-18T04:29:30.365Z,99.90
2019-05-18T04:32:18.986Z,99.90
2019-05-18T04:34:48.823Z,99.90
2019-05-18T04:37:18.665Z,99.90
2019-05-18T04:39:48.202Z,99.90
2019-05-18T04:42:17.824Z,99.90
2019-05-18T04:44:47.477Z,99.90
2019-05-18T04:47:17.147Z,99.90
2019-05-18T04:50:03.947Z,99.90
2019-05-18T04:52:18.004Z,99.90
2019-05-18T04:54:47.866Z,99.90
2019-05-18T04:57:17.582Z,99.90
2019-05-18T04:59:47.267Z,99.90
2019-05-18T05:02:16.912Z,99.90
2019-05-18T05:04:46.539Z,99.90
2019-05-18T05:07:16.188Z,99.90
2019-05-18T05:09:45.795Z,99.90
2019-05-18T05:12:15.357Z,99.90
2019-05-18T05:14:44.937Z,99.90
2019-05-18T05:17:14.654Z,99.90
2019-05-18T05:19:44.180Z,99.90
2019-05-18T05:22:13.966Z,99.90
2019-05-18T05:24:43.579Z,99.90
2019-05-18T05:27:13.293Z,99.90
2019-05-18T05:29:42.919Z,99.90
2019-05-18T05:32:12.486Z,99.90
2019-05-18T05:34:42.223Z,99.90
2019-05-18T05:37:12.032Z,99.90
2019-05-18T05:39:41.715Z,99.90
2019-05-18T05:42:11.262Z,99.90
2019-05-18T05:44:40.809Z,99.90
2019-05-18T05:47:10.355Z,99.90
2019-05-18T05:49:39.967Z,99.90
2019-05-18T05:52:09.515Z,99.90
2019-05-18T05:54:39.103Z,99.90
2019-05-18T05:57:08.887Z,99.90
2019-05-18T05:59:38.573Z,99.90
2019-05-18T06:02:08.173Z,99.90
2019-05-18T06:04:37.949Z,99.90
2019-05-18T06:07:07.677Z,99.90
2019-05-18T06:09:37.373Z,99.90
2019-05-18T06:12:06.979Z,99.90
2019-05-18T06:14:36.607Z,99.90
2019-05-18T06:17:08.399Z,99.90
2019-05-18T06:19:37.623Z,99.90
2019-05-18T06:22:07.341Z,99.90
2019-05-18T06:24:36.881Z,99.90
2019-05-18T06:27:06.728Z,99.90
2019-05-18T06:29:36.590Z,99.90
2019-05-18T06:32:06.201Z,99.90
2019-05-18T06:34:35.868Z,99.90
2019-05-18T06:37:05.533Z,99.90
2019-05-18T06:39:35.291Z,99.90
2019-05-18T06:42:05.019Z,99.40
2019-05-18T06:44:34.877Z,99.60
2019-05-18T06:47:04.715Z,98.10
2019-05-18T06:49:34.356Z,99.10
2019-05-18T06:52:04.080Z,96.40
2019-05-18T06:54:33.708Z,96.60
2019-05-18T06:57:03.789Z,94.40
2019-05-18T06:59:34.063Z,94.40
2019-05-18T07:02:03.696Z,94.60
2019-05-18T07:04:33.347Z,96.00
2019-05-18T07:07:02.911Z,93.30
2019-05-18T07:09:32.589Z,93.90
2019-05-18T07:12:02.269Z,91.30
2019-05-18T07:14:31.889Z,91.20
2019-05-18T07:17:01.521Z,90.20
2019-05-18T07:19:31.209Z,90.20
2019-05-18T07:22:00.865Z,90.00
2019-05-18T07:24:30.628Z,87.70
2019-05-18T07:27:00.342Z,87.30
2019-05-18T07:29:30.227Z,84.80
2019-05-18T07:31:59.901Z,82.90
2019-05-18T07:34:29.486Z,83.60
2019-05-18T07:36:59.059Z,80.80
2019-05-18T07:39:28.852Z,84.00
2019-05-18T07:41:58.580Z,82.60
2019-05-18T07:44:28.231Z,82.90
2019-05-18T07:46:57.836Z,79.20
2019-05-18T07:49:27.505Z,78.40
2019-05-18T07:52:17.368Z,78.60
2019-05-18T07:54:47.206Z,76.60
2019-05-18T07:57:16.814Z,79.30
2019-05-18T07:59:46.471Z,81.10
2019-05-18T08:02:15.978Z,80.00
2019-05-18T08:04:45.712Z,77.60
2019-05-18T08:07:15.444Z,72.90
2019-05-18T08:09:45.162Z,72.10
2019-05-18T08:12:14.680Z,68.50
2019-05-18T08:14:44.319Z,69.70
2019-05-18T08:17:13.832Z,68.80
2019-05-18T08:19:43.360Z,69.50
2019-05-18T08:22:13.114Z,72.50
2019-05-18T08:24:42.767Z,68.10
2019-05-18T08:27:12.343Z,73.30
2019-05-18T08:29:41.883Z,71.40
2019-05-18T08:32:11.630Z,73.10
2019-05-18T08:34:41.182Z,65.10
2019-05-18T08:37:10.791Z,67.60
2019-05-18T08:39:40.588Z,63.70
2019-05-18T08:42:10.109Z,65.00
2019-05-18T08:44:39.863Z,63.10
2019-05-18T08:47:09.430Z,61.80
2019-05-18T08:49:39.211Z,61.70
2019-05-18T08:52:09.133Z,62.80
2019-05-18T08:54:38.718Z,61.80
2019-05-18T08:57:08.429Z,64.20
2019-05-18T08:59:39.894Z,62.30
2019-05-18T09:02:09.338Z,62.30
2019-05-18T09:04:39.082Z,63.80
2019-05-18T09:07:08.677Z,61.80
2019-05-18T09:09:38.387Z,57.30
2019-05-18T09:12:08.045Z,51.60
2019-05-18T09:14:37.751Z,56.50
2019-05-18T09:17:07.349Z,54.70
2019-05-18T09:19:37.076Z,53.30
2019-05-18T09:22:06.713Z,56.10
2019-05-18T09:24:36.467Z,55.50
2019-05-18T09:27:06.221Z,59.80
2019-05-18T09:29:35.918Z,50.40
2019-05-18T09:32:05.551Z,52.30
2019-05-18T09:34:35.190Z,52.50
2019-05-18T09:37:04.834Z,51.60
2019-05-18T09:39:34.535Z,49.70
2019-05-18T09:42:04.101Z,52.80
2019-05-18T09:44:33.938Z,51.20
2019-05-18T09:47:03.517Z,57.80
2019-05-18T09:49:33.145Z,51.50
2019-05-18T09:52:02.852Z,50.80
2019-05-18T09:54:32.515Z,50.30
2019-05-18T09:57:02.058Z,51.80
2019-05-18T09:59:31.564Z,50.50
2019-05-18T10:02:01.135Z,51.00
2019-05-18T10:04:31.000Z,48.50
2019-05-18T10:07:00.679Z,52.00
2019-05-18T10:09:38.883Z,48.70
2019-05-18T10:12:01.789Z,49.80
2019-05-18T10:14:31.531Z,50.40
2019-05-18T10:17:01.177Z,50.20
2019-05-18T10:19:31.030Z,48.70
2019-05-18T10:22:00.642Z,47.70
2019-05-18T10:24:30.300Z,48.70
2019-05-18T10:27:00.177Z,48.70
2019-05-18T10:29:29.799Z,50.00
2019-05-18T10:31:59.582Z,50.80
2019-05-18T10:34:29.136Z,48.40
2019-05-18T10:36:58.797Z,51.40
2019-05-18T10:39:28.420Z,48.20
2019-05-18T10:41:58.022Z,47.90
2019-05-18T10:44:27.652Z,48.00
2019-05-18T10:46:57.431Z,48.00
2019-05-18T10:49:46.004Z,45.80
2019-05-18T10:52:15.577Z,47.00
2019-05-18T10:55:04.152Z,47.60
2019-05-18T10:57:33.937Z,48.10
2019-05-18T11:00:22.580Z,46.10
2019-05-18T11:02:52.234Z,46.20
2019-05-18T11:05:21.878Z,46.40
2019-05-18T11:07:51.788Z,47.20
2019-05-18T11:10:22.269Z,47.10
2019-05-18T11:12:52.109Z,45.00
2019-05-18T11:15:22.053Z,45.50
2019-05-18T11:17:51.792Z,46.70
2019-05-18T11:20:21.655Z,44.10
2019-05-18T11:22:51.204Z,48.30
2019-05-18T11:25:21.147Z,48.60
2019-05-18T11:27:50.895Z,43.40
2019-05-18T11:30:22.440Z,44.00
2019-05-18T11:32:52.138Z,46.40
2019-05-18T11:35:21.887Z,46.00
2019-05-18T11:37:51.650Z,46.30
2019-05-18T11:40:21.681Z,45.10
2019-05-18T11:42:51.530Z,43.10
2019-05-18T11:45:22.572Z,43.10
2019-05-18T11:47:52.214Z,41.60
2019-05-18T11:50:22.377Z,42.90
2019-05-18T11:52:52.077Z,42.80
2019-05-18T11:55:22.168Z,45.50
2019-05-18T11:57:51.907Z,43.40
2019-05-18T12:00:22.251Z,42.40
2019-05-18T12:02:51.812Z,41.60
2019-05-18T12:05:21.560Z,43.40
2019-05-18T12:07:51.248Z,47.30
2019-05-18T12:10:21.113Z,43.80
2019-05-18T12:12:50.987Z,44.10
2019-05-18T12:15:21.256Z,45.60
2019-05-18T12:17:51.109Z,43.20
2019-05-18T12:20:21.147Z,42.70
2019-05-18T12:22:50.868Z,44.10
2019-05-18T12:25:20.639Z,45.00
2019-05-18T12:27:50.357Z,46.30
2019-05-18T12:30:20.220Z,42.30
2019-05-18T12:32:49.779Z,44.00
2019-05-18T12:35:19.443Z,44.10
2019-05-18T12:37:49.218Z,46.30
2019-05-18T12:40:21.163Z,47.00
2019-05-18T12:42:50.813Z,44.90
2019-05-18T12:45:22.267Z,46.60
2019-05-18T12:47:52.149Z,48.00
2019-05-18T12:50:22.699Z,48.20
2019-05-18T12:52:52.263Z,50.30
2019-05-18T12:55:22.083Z,50.00
2019-05-18T12:57:51.831Z,49.40
2019-05-18T13:00:22.262Z,46.30
2019-05-18T13:02:51.988Z,44.50
2019-05-18T13:05:21.887Z,44.20
2019-05-18T13:07:51.699Z,45.30
2019-05-18T13:10:21.987Z,44.30
2019-05-18T13:12:51.504Z,47.50
2019-05-18T13:15:21.560Z,47.30
2019-05-18T13:17:51.251Z,48.80
2019-05-18T13:20:21.159Z,49.50
2019-05-18T13:22:51.453Z,47.40
2019-05-18T13:25:21.185Z,48.20
2019-05-18T13:27:50.725Z,47.10
2019-05-18T13:30:21.870Z,47.80
2019-05-18T13:32:51.687Z,48.00
2019-05-18T13:35:21.620Z,46.80
2019-05-18T13:37:51.294Z,46.50
2019-05-18T13:40:20.934Z,47.30
2019-05-18T13:42:50.593Z,49.80
2019-05-18T13:45:20.636Z,48.30
2019-05-18T13:47:50.328Z,48.00
2019-05-18T13:50:20.431Z,50.70
2019-05-18T13:52:50.468Z,51.60
2019-05-18T13:55:20.131Z,52.80
2019-05-18T13:57:49.790Z,49.10
2019-05-18T14:00:20.559Z,49.70
2019-05-18T14:02:50.586Z,52.40
2019-05-18T14:05:20.662Z,51.90
2019-05-18T14:07:50.393Z,54.50
2019-05-18T14:10:20.245Z,54.10
2019-05-18T14:12:50.073Z,53.20
2019-05-18T14:15:22.757Z,52.60
2019-05-18T14:17:51.291Z,52.90
2019-05-18T14:20:21.026Z,54.10
2019-05-18T14:22:50.868Z,54.00
2019-05-18T14:25:20.721Z,54.60
2019-05-18T14:27:50.522Z,55.20
2019-05-18T14:30:20.654Z,55.70
2019-05-18T14:32:50.354Z,54.30
2019-05-18T14:35:20.076Z,54.10
2019-05-18T14:37:49.874Z,54.50
2019-05-18T14:40:19.796Z,55.00
2019-05-18T14:42:49.448Z,55.40
2019-05-18T14:45:19.532Z,56.00
2019-05-18T14:47:49.052Z,55.60
2019-05-18T14:50:19.112Z,55.50
2019-05-18T14:52:48.710Z,57.00
2019-05-18T14:55:31.404Z,56.20
2019-05-18T14:57:50.275Z,56.70
2019-05-18T15:00:20.188Z,56.40
2019-05-18T15:02:49.940Z,55.40
2019-05-18T15:05:20.094Z,55.20
2019-05-18T15:07:49.762Z,55.20
2019-05-18T15:10:19.836Z,56.60
2019-05-18T15:12:49.420Z,57.10
2019-05-18T15:15:19.898Z,56.30
2019-05-18T15:17:49.569Z,55.90
2019-05-18T15:20:19.444Z,56.60
2019-05-18T15:22:49.038Z,55.70
2019-05-18T15:25:18.766Z,55.80
2019-05-18T15:27:48.301Z,56.60
2019-05-18T15:30:18.293Z,56.00
2019-05-18T15:32:47.963Z,56.30
2019-05-18T15:35:17.789Z,56.40
2019-05-18T15:37:47.608Z,56.70
2019-05-18T15:40:17.369Z,56.90
2019-05-18T15:42:46.993Z,56.90
2019-05-18T15:45:17.053Z,56.10
2019-05-18T15:47:46.806Z,56.70
2019-05-18T15:50:17.791Z,57.30
2019-05-18T15:52:47.528Z,57.70
2019-05-18T15:55:17.597Z,56.90
2019-05-18T15:57:47.236Z,58.60
2019-05-18T16:00:17.558Z,58.00
2019-05-18T16:02:47.270Z,58.30
2019-05-18T16:05:17.214Z,57.50
2019-05-18T16:07:46.754Z,58.10
2019-05-18T16:10:16.794Z,58.90
2019-05-18T16:12:46.437Z,59.20
2019-05-18T16:15:16.124Z,59.60
2019-05-18T16:17:45.712Z,59.10
2019-05-18T16:20:15.962Z,59.90
2019-05-18T16:22:45.703Z,60.30
2019-05-18T16:25:17.536Z,59.90
2019-05-18T16:27:47.464Z,60.70
2019-05-18T16:30:17.578Z,60.60
2019-05-18T16:32:47.121Z,63.20
2019-05-18T16:35:16.857Z,62.80
2019-05-18T16:37:46.465Z,62.90
2019-05-18T16:40:16.453Z,62.40
2019-05-18T16:42:46.788Z,63.70
2019-05-18T16:45:17.111Z,63.60
2019-05-18T16:47:46.974Z,63.60
2019-05-18T16:50:18.175Z,63.50
2019-05-18T16:52:47.785Z,63.90
2019-05-18T16:55:17.823Z,64.60
2019-05-18T16:57:47.392Z,64.70
2019-05-18T17:00:17.597Z,64.30
2019-05-18T17:02:47.509Z,66.30
2019-05-18T17:05:17.473Z,64.80
2019-05-18T17:07:47.265Z,66.20
2019-05-18T17:10:17.208Z,66.90
2019-05-18T17:12:46.823Z,65.90
2019-05-18T17:15:17.121Z,66.50
2019-05-18T17:17:46.900Z,65.90
2019-05-18T17:20:17.791Z,66.80
2019-05-18T17:22:47.548Z,67.20
2019-05-18T17:25:17.447Z,67.60
2019-05-18T17:27:47.180Z,68.00
2019-05-18T17:30:17.281Z,68.40
2019-05-18T17:32:46.862Z,68.30
2019-05-18T17:35:16.783Z,68.20
2019-05-18T17:37:46.649Z,68.20
2019-05-18T17:40:16.572Z,68.50
2019-05-18T17:42:46.195Z,69.10
2019-05-18T17:45:16.022Z,69.70
2019-05-18T17:47:45.979Z,69.10
2019-05-18T17:50:15.939Z,69.20
2019-05-18T17:52:45.443Z,70.10
2019-05-18T17:55:16.426Z,70.60
2019-05-18T17:57:46.218Z,70.30
2019-05-18T18:00:16.486Z,71.10
2019-05-18T18:02:48.123Z,71.70
2019-05-18T18:05:17.598Z,71.80
2019-05-18T18:07:47.292Z,71.90
2019-05-18T18:10:17.903Z,72.20
2019-05-18T18:12:47.475Z,72.90
2019-05-18T18:15:17.286Z,73.70
2019-05-18T18:17:46.923Z,74.20
2019-05-18T18:20:17.049Z,75.10
2019-05-18T18:22:46.774Z,75.90
2019-05-18T18:25:16.568Z,76.60
2019-05-18T18:27:46.302Z,77.80
2019-05-18T18:30:16.459Z,79.30
2019-05-18T18:32:46.236Z,80.60
2019-05-18T18:35:15.895Z,81.40
2019-05-18T18:37:45.742Z,83.60
2019-05-18T18:40:15.591Z,84.40
2019-05-18T18:42:45.252Z,87.10
2019-05-18T18:45:15.489Z,90.50
2019-05-18T18:47:45.219Z,90.80
2019-05-18T18:50:15.241Z,91.90
2019-05-18T18:52:45.037Z,93.80
2019-05-18T18:55:15.175Z,95.90
2019-05-18T18:57:44.898Z,97.70
2019-05-18T19:00:16.198Z,99.90
2019-05-18T19:02:45.728Z,99.90
2019-05-18T19:05:15.726Z,99.90
2019-05-18T19:07:45.533Z,99.90
2019-05-18T19:10:15.767Z,99.90
2019-05-18T19:12:45.340Z,99.90
2019-05-18T19:15:15.155Z,99.90
2019-05-18T19:17:44.910Z,99.90
2019-05-18T19:20:14.865Z,99.90
2019-05-18T19:22:44.707Z,99.90
2019-05-18T19:25:14.874Z,99.90
2019-05-18T19:27:54.503Z,99.90
2019-05-18T19:30:16.907Z,99.90
2019-05-18T19:32:46.555Z,99.90
2019-05-18T19:35:16.172Z,99.90
2019-05-18T19:37:45.877Z,99.90
2019-05-18T19:40:17.347Z,99.90
2019-05-18T19:42:47.143Z,99.90
2019-05-18T19:45:16.983Z,99.90
2019-05-18T19:47:46.791Z,99.90
2019-05-18T19:50:16.631Z,99.90
2019-05-18T19:52:46.311Z,99.90
2019-05-18T19:55:16.032Z,99.90
2019-05-18T19:57:45.957Z,99.90
2019-05-18T20:00:16.284Z,99.90
2019-05-18T20:02:46.165Z,99.90
2019-05-18T20:05:15.927Z,99.90
2019-05-18T20:07:45.668Z,99.90
2019-05-18T20:10:15.960Z,99.90
2019-05-18T20:12:45.638Z,99.90
2019-05-18T20:15:15.818Z,99.90
2019-05-18T20:17:45.455Z,99.90
2019-05-18T20:20:16.538Z,99.90
2019-05-18T20:22:46.275Z,99.90
2019-05-18T20:25:16.014Z,99.90
2019-05-18T20:27:45.759Z,99.90
2019-05-18T20:30:17.492Z,99.90
2019-05-18T20:32:47.149Z,99.90
2019-05-18T20:35:17.179Z,99.90
2019-05-18T20:37:46.841Z,99.90
2019-05-18T20:40:16.839Z,99.90
2019-05-18T20:42:46.480Z,99.90
2019-05-18T20:45:16.355Z,99.90
2019-05-18T20:47:46.000Z,99.90
2019-05-18T20:50:16.477Z,99.90
2019-05-18T20:52:46.263Z,99.90
2019-05-18T20:55:16.011Z,99.90
2019-05-18T20:57:45.532Z,99.90
2019-05-18T21:00:16.164Z,99.90
2019-05-18T21:02:45.775Z,99.90
2019-05-18T21:05:16.052Z,99.90
2019-05-18T21:07:45.711Z,99.90
2019-05-18T21:10:15.595Z,99.90
2019-05-18T21:12:45.210Z,99.90
2019-05-18T21:15:15.675Z,99.90
2019-05-18T21:17:45.271Z,99.90
2019-05-18T21:20:15.081Z,99.90
2019-05-18T21:22:44.899Z,99.90
2019-05-18T21:25:14.546Z,99.90
2019-05-18T21:27:44.393Z,99.90
2019-05-18T21:30:14.689Z,99.90
2019-05-18T21:32:44.352Z,99.90
2019-05-18T21:35:13.985Z,99.90
2019-05-18T21:37:43.636Z,99.90
2019-05-18T21:40:13.790Z,99.90
2019-05-18T21:42:43.316Z,99.90
2019-05-18T21:45:13.233Z,99.90
2019-05-18T21:47:42.936Z,99.90
2019-05-18T21:50:12.828Z,99.90
2019-05-18T21:52:42.722Z,99.90
2019-05-18T21:55:12.724Z,99.90
2019-05-18T21:57:42.462Z,99.90
2019-05-18T22:00:12.608Z,99.90
2019-05-18T22:02:42.430Z,99.90
2019-05-18T22:05:12.330Z,99.90
2019-05-18T22:07:41.944Z,99.90
2019-05-18T22:10:24.869Z,99.90
2019-05-18T22:12:43.556Z,99.90
2019-05-18T22:15:14.706Z,99.90
2019-05-18T22:18:01.999Z,99.90
2019-05-18T22:20:31.946Z,99.90
2019-05-18T22:23:01.591Z,99.90
2019-05-18T22:25:31.437Z,99.90
2019-05-18T22:28:01.399Z,99.90
2019-05-18T22:30:31.112Z,99.90
2019-05-18T22:33:00.658Z,99.90
2019-05-18T22:35:30.291Z,99.90
2019-05-18T22:37:59.775Z,99.90
2019-05-18T22:40:29.341Z,99.90
2019-05-18T22:42:59.278Z,99.90
2019-05-18T22:45:28.907Z,99.90
2019-05-18T22:47:58.622Z,99.90
2019-05-18T22:50:28.313Z,99.90
2019-05-18T22:52:58.049Z,99.90
2019-05-18T22:55:27.679Z,99.90
2019-05-18T22:57:57.241Z,99.90
2019-05-18T23:00:26.865Z,99.90
2019-05-18T23:02:56.451Z,99.90
2019-05-18T23:05:26.075Z,99.90
2019-05-18T23:07:55.773Z,99.90
2019-05-18T23:10:25.443Z,99.90
2019-05-18T23:12:54.992Z,99.90
2019-05-18T23:15:24.649Z,99.90
2019-05-18T23:17:54.211Z,99.90
2019-05-18T23:20:23.815Z,99.90
2019-05-18T23:22:53.467Z,99.90
2019-05-18T23:25:23.325Z,99.90
2019-05-18T23:27:53.068Z,99.90
2019-05-18T23:30:22.571Z,99.90
2019-05-18T23:32:52.077Z,99.90
2019-05-18T23:35:21.771Z,99.90
2019-05-18T23:37:51.375Z,99.90
2019-05-18T23:40:21.519Z,99.90
2019-05-18T23:42:51.115Z,99.90
2019-05-18T23:45:20.721Z,99.90
2019-05-18T23:47:50.508Z,99.90
2019-05-18T23:50:20.042Z,99.90
2019-05-18T23:52:49.810Z,99.90
2019-05-18T23:55:19.460Z,99.90
2019-05-18T23:57:49.045Z,99.90
